sensor_id;sensor_type;location;lat;lon;timestamp;P1;durP1;ratioP1;P2;durP2;ratioP2
8562;SDS011;16392;52.508;13.468;2022-12-20T00:00:43;376.73;;;69.67;;
8562;SDS011;16392;52.508;13.468;2022-12-20T00:03:10;374.63;;;68.57;;
8562;SDS011;16392;52.508;13.468;2022-12-20T00:05:37;374.20;;;72.80;;
8562;SDS011;16392;52.508;13.468;2022-12-20T00:08:04;375.20;;;70.70;;
8562;SDS011;16392;52.508;13.468;2022-12-20T00:10:33;371.40;;;66.00;;
8562;SDS011;16392;52.508;13.468;2022-12-20T00:13:02;374.93;;;68.43;;
8562;SDS011;16392;52.508;13.468;2022-12-20T00:15:29;371.07;;;65.87;;
8562;SDS011;16392;52.508;13.468;2022-12-20T00:17:56;377.77;;;71.27;;
8562;SDS011;16392;52.508;13.468;2022-12-20T00:20:24;375.87;;;69.13;;
8562;SDS011;16392;52.508;13.468;2022-12-20T00:22:51;372.83;;;70.30;;
8562;SDS011;16392;52.508;13.468;2022-12-20T00:25:18;376.97;;;73.10;;
8562;SDS011;16392;52.508;13.468;2022-12-20T00:27:45;373.97;;;66.63;;
8562;SDS011;16392;52.508;13.468;2022-12-20T00:30:13;384.07;;;75.50;;
8562;SDS011;16392;52.508;13.468;2022-12-20T00:32:41;375.77;;;68.03;;
8562;SDS011;16392;52.508;13.468;2022-12-20T00:35:10;376.40;;;68.43;;
8562;SDS011;16392;52.508;13.468;2022-12-20T00:37:37;378.33;;;69.17;;
8562;SDS011;16392;52.508;13.468;2022-12-20T00:40:05;379.13;;;70.43;;
8562;SDS011;16392;52.508;13.468;2022-12-20T00:42:32;379.33;;;70.77;;
8562;SDS011;16392;52.508;13.468;2022-12-20T00:44:59;378.93;;;70.80;;
8562;SDS011;16392;52.508;13.468;2022-12-20T00:47:27;373.10;;;65.07;;
8562;SDS011;16392;52.508;13.468;2022-12-20T00:49:53;375.67;;;68.67;;
8562;SDS011;16392;52.508;13.468;2022-12-20T00:52:20;375.43;;;65.90;;
8562;SDS011;16392;52.508;13.468;2022-12-20T00:54:47;380.00;;;70.80;;
8562;SDS011;16392;52.508;13.468;2022-12-20T00:57:14;375.27;;;65.07;;
8562;SDS011;16392;52.508;13.468;2022-12-20T00:59:40;374.63;;;65.40;;
8562;SDS011;16392;52.508;13.468;2022-12-20T01:02:07;377.20;;;65.23;;
8562;SDS011;16392;52.508;13.468;2022-12-20T01:04:35;377.93;;;70.40;;
8562;SDS011;16392;52.508;13.468;2022-12-20T01:07:02;379.83;;;65.73;;
8562;SDS011;16392;52.508;13.468;2022-12-20T01:09:29;387.00;;;70.10;;
8562;SDS011;16392;52.508;13.468;2022-12-20T01:11:56;377.20;;;68.43;;
8562;SDS011;16392;52.508;13.468;2022-12-20T01:14:23;377.07;;;66.37;;
8562;SDS011;16392;52.508;13.468;2022-12-20T01:16:49;379.47;;;68.03;;
8562;SDS011;16392;52.508;13.468;2022-12-20T01:19:16;375.73;;;67.40;;
8562;SDS011;16392;52.508;13.468;2022-12-20T01:21:45;375.70;;;67.50;;
8562;SDS011;16392;52.508;13.468;2022-12-20T01:24:12;375.53;;;71.20;;
8562;SDS011;16392;52.508;13.468;2022-12-20T01:26:40;379.73;;;67.43;;
8562;SDS011;16392;52.508;13.468;2022-12-20T01:29:07;377.73;;;68.77;;
8562;SDS011;16392;52.508;13.468;2022-12-20T01:31:34;380.33;;;68.17;;
8562;SDS011;16392;52.508;13.468;2022-12-20T01:34:01;382.03;;;72.17;;
8562;SDS011;16392;52.508;13.468;2022-12-20T01:36:29;378.63;;;66.80;;
8562;SDS011;16392;52.508;13.468;2022-12-20T01:38:59;378.30;;;67.97;;
8562;SDS011;16392;52.508;13.468;2022-12-20T01:41:27;375.87;;;64.63;;
8562;SDS011;16392;52.508;13.468;2022-12-20T01:43:56;377.07;;;67.90;;
8562;SDS011;16392;52.508;13.468;2022-12-20T01:46:26;379.17;;;70.60;;
8562;SDS011;16392;52.508;13.468;2022-12-20T01:48:54;380.90;;;73.20;;
8562;SDS011;16392;52.508;13.468;2022-12-20T01:51:25;383.03;;;75.23;;
8562;SDS011;16392;52.508;13.468;2022-12-20T01:53:56;377.00;;;67.63;;
8562;SDS011;16392;52.508;13.468;2022-12-20T01:56:28;378.30;;;67.13;;
8562;SDS011;16392;52.508;13.468;2022-12-20T01:58:55;378.67;;;66.77;;
8562;SDS011;16392;52.508;13.468;2022-12-20T02:01:23;376.80;;;65.70;;
8562;SDS011;16392;52.508;13.468;2022-12-20T02:03:50;379.37;;;68.17;;
8562;SDS011;16392;52.508;13.468;2022-12-20T02:06:20;383.33;;;70.10;;
8562;SDS011;16392;52.508;13.468;2022-12-20T02:08:48;377.40;;;68.87;;
8562;SDS011;16392;52.508;13.468;2022-12-20T02:11:23;377.10;;;67.17;;
8562;SDS011;16392;52.508;13.468;2022-12-20T02:14:04;378.87;;;70.30;;
8562;SDS011;16392;52.508;13.468;2022-12-20T02:16:39;377.70;;;66.53;;
8562;SDS011;16392;52.508;13.468;2022-12-20T02:19:14;378.00;;;65.87;;
8562;SDS011;16392;52.508;13.468;2022-12-20T02:22:01;378.40;;;65.00;;
8562;SDS011;16392;52.508;13.468;2022-12-20T02:24:53;379.60;;;68.83;;
8562;SDS011;16392;52.508;13.468;2022-12-20T02:27:42;377.20;;;68.90;;
8562;SDS011;16392;52.508;13.468;2022-12-20T02:30:19;380.03;;;69.10;;
8562;SDS011;16392;52.508;13.468;2022-12-20T02:32:48;380.00;;;72.37;;
8562;SDS011;16392;52.508;13.468;2022-12-20T02:35:20;381.73;;;72.00;;
8562;SDS011;16392;52.508;13.468;2022-12-20T02:37:50;378.73;;;68.50;;
8562;SDS011;16392;52.508;13.468;2022-12-20T02:40:18;382.33;;;72.50;;
8562;SDS011;16392;52.508;13.468;2022-12-20T02:42:49;378.13;;;65.30;;
8562;SDS011;16392;52.508;13.468;2022-12-20T02:45:21;379.37;;;67.80;;
8562;SDS011;16392;52.508;13.468;2022-12-20T02:47:51;379.87;;;69.97;;
8562;SDS011;16392;52.508;13.468;2022-12-20T02:50:21;377.50;;;68.00;;
8562;SDS011;16392;52.508;13.468;2022-12-20T02:52:52;379.80;;;69.67;;
8562;SDS011;16392;52.508;13.468;2022-12-20T02:55:20;381.33;;;68.53;;
8562;SDS011;16392;52.508;13.468;2022-12-20T02:57:53;386.17;;;70.87;;
8562;SDS011;16392;52.508;13.468;2022-12-20T03:00:25;380.30;;;70.00;;
8562;SDS011;16392;52.508;13.468;2022-12-20T03:02:56;382.97;;;69.43;;
8562;SDS011;16392;52.508;13.468;2022-12-20T03:05:42;381.03;;;70.80;;
8562;SDS011;16392;52.508;13.468;2022-12-20T03:08:10;381.43;;;70.70;;
8562;SDS011;16392;52.508;13.468;2022-12-20T03:10:37;383.07;;;71.97;;
8562;SDS011;16392;52.508;13.468;2022-12-20T03:13:03;383.43;;;71.47;;
8562;SDS011;16392;52.508;13.468;2022-12-20T03:15:31;385.67;;;72.63;;
8562;SDS011;16392;52.508;13.468;2022-12-20T03:17:59;383.30;;;72.83;;
8562;SDS011;16392;52.508;13.468;2022-12-20T03:20:26;382.87;;;68.80;;
8562;SDS011;16392;52.508;13.468;2022-12-20T03:22:52;380.43;;;68.03;;
8562;SDS011;16392;52.508;13.468;2022-12-20T03:25:19;382.90;;;72.03;;
8562;SDS011;16392;52.508;13.468;2022-12-20T03:27:46;384.97;;;74.23;;
8562;SDS011;16392;52.508;13.468;2022-12-20T03:30:13;384.00;;;69.73;;
8562;SDS011;16392;52.508;13.468;2022-12-20T03:32:42;383.10;;;67.00;;
8562;SDS011;16392;52.508;13.468;2022-12-20T03:35:08;388.67;;;71.93;;
8562;SDS011;16392;52.508;13.468;2022-12-20T03:37:35;382.70;;;68.47;;
8562;SDS011;16392;52.508;13.468;2022-12-20T03:40:02;385.57;;;72.47;;
8562;SDS011;16392;52.508;13.468;2022-12-20T03:42:32;382.77;;;70.43;;
8562;SDS011;16392;52.508;13.468;2022-12-20T03:44:58;383.27;;;68.13;;
8562;SDS011;16392;52.508;13.468;2022-12-20T03:47:25;386.07;;;70.93;;
8562;SDS011;16392;52.508;13.468;2022-12-20T03:49:53;384.50;;;68.13;;
8562;SDS011;16392;52.508;13.468;2022-12-20T03:52:20;386.83;;;72.13;;
8562;SDS011;16392;52.508;13.468;2022-12-20T03:54:46;387.50;;;74.90;;
8562;SDS011;16392;52.508;13.468;2022-12-20T03:57:13;386.30;;;73.13;;
8562;SDS011;16392;52.508;13.468;2022-12-20T03:59:40;384.03;;;67.67;;
8562;SDS011;16392;52.508;13.468;2022-12-20T04:02:07;389.70;;;73.17;;
8562;SDS011;16392;52.508;13.468;2022-12-20T04:04:35;384.30;;;70.23;;
8562;SDS011;16392;52.508;13.468;2022-12-20T04:07:03;385.40;;;67.10;;
8562;SDS011;16392;52.508;13.468;2022-12-20T04:09:29;383.83;;;69.23;;
8562;SDS011;16392;52.508;13.468;2022-12-20T04:11:56;390.60;;;77.77;;
8562;SDS011;16392;52.508;13.468;2022-12-20T04:14:23;384.63;;;70.17;;
8562;SDS011;16392;52.508;13.468;2022-12-20T04:16:49;388.30;;;77.23;;
8562;SDS011;16392;52.508;13.468;2022-12-20T04:19:16;385.33;;;74.53;;
8562;SDS011;16392;52.508;13.468;2022-12-20T04:21:43;385.00;;;75.30;;
8562;SDS011;16392;52.508;13.468;2022-12-20T04:24:11;381.17;;;68.50;;
8562;SDS011;16392;52.508;13.468;2022-12-20T04:26:38;385.23;;;73.77;;
8562;SDS011;16392;52.508;13.468;2022-12-20T04:29:05;385.73;;;70.60;;
8562;SDS011;16392;52.508;13.468;2022-12-20T04:31:31;387.00;;;73.63;;
8562;SDS011;16392;52.508;13.468;2022-12-20T04:33:58;384.03;;;71.03;;
8562;SDS011;16392;52.508;13.468;2022-12-20T04:36:25;383.63;;;70.87;;
8562;SDS011;16392;52.508;13.468;2022-12-20T04:38:51;384.30;;;71.13;;
8562;SDS011;16392;52.508;13.468;2022-12-20T04:41:20;383.30;;;72.03;;
8562;SDS011;16392;52.508;13.468;2022-12-20T04:43:51;382.47;;;69.43;;
8562;SDS011;16392;52.508;13.468;2022-12-20T04:46:20;383.17;;;72.17;;
8562;SDS011;16392;52.508;13.468;2022-12-20T04:48:47;385.13;;;75.03;;
8562;SDS011;16392;52.508;13.468;2022-12-20T04:51:14;384.03;;;71.40;;
8562;SDS011;16392;52.508;13.468;2022-12-20T04:53:41;379.70;;;68.70;;
8562;SDS011;16392;52.508;13.468;2022-12-20T04:56:13;382.90;;;69.83;;
8562;SDS011;16392;52.508;13.468;2022-12-20T04:58:42;381.70;;;68.87;;
8562;SDS011;16392;52.508;13.468;2022-12-20T05:01:09;385.03;;;73.33;;
8562;SDS011;16392;52.508;13.468;2022-12-20T05:03:36;377.60;;;68.23;;
8562;SDS011;16392;52.508;13.468;2022-12-20T05:06:03;379.93;;;72.43;;
8562;SDS011;16392;52.508;13.468;2022-12-20T05:08:30;385.97;;;76.13;;
8562;SDS011;16392;52.508;13.468;2022-12-20T05:10:57;384.40;;;73.97;;
8562;SDS011;16392;52.508;13.468;2022-12-20T05:13:24;380.07;;;69.70;;
8562;SDS011;16392;52.508;13.468;2022-12-20T05:15:52;383.27;;;71.57;;
8562;SDS011;16392;52.508;13.468;2022-12-20T05:18:20;381.93;;;71.00;;
8562;SDS011;16392;52.508;13.468;2022-12-20T05:20:47;380.73;;;76.20;;
8562;SDS011;16392;52.508;13.468;2022-12-20T05:23:34;379.47;;;68.27;;
8562;SDS011;16392;52.508;13.468;2022-12-20T05:26:18;380.63;;;69.87;;
8562;SDS011;16392;52.508;13.468;2022-12-20T05:28:45;382.23;;;71.37;;
8562;SDS011;16392;52.508;13.468;2022-12-20T05:31:13;380.70;;;71.13;;
8562;SDS011;16392;52.508;13.468;2022-12-20T05:33:39;383.17;;;69.63;;
8562;SDS011;16392;52.508;13.468;2022-12-20T05:36:06;385.83;;;76.07;;
8562;SDS011;16392;52.508;13.468;2022-12-20T05:38:33;384.30;;;71.17;;
8562;SDS011;16392;52.508;13.468;2022-12-20T05:41:00;381.60;;;73.50;;
8562;SDS011;16392;52.508;13.468;2022-12-20T05:43:28;385.03;;;74.43;;
8562;SDS011;16392;52.508;13.468;2022-12-20T05:45:55;384.77;;;70.70;;
8562;SDS011;16392;52.508;13.468;2022-12-20T05:48:23;382.03;;;70.00;;
8562;SDS011;16392;52.508;13.468;2022-12-20T05:50:50;385.67;;;77.00;;
8562;SDS011;16392;52.508;13.468;2022-12-20T05:53:16;384.13;;;72.97;;
8562;SDS011;16392;52.508;13.468;2022-12-20T05:55:43;383.43;;;74.53;;
8562;SDS011;16392;52.508;13.468;2022-12-20T05:58:13;382.60;;;68.63;;
8562;SDS011;16392;52.508;13.468;2022-12-20T06:00:40;385.00;;;67.73;;
8562;SDS011;16392;52.508;13.468;2022-12-20T06:03:07;383.63;;;68.80;;
8562;SDS011;16392;52.508;13.468;2022-12-20T06:05:36;383.50;;;68.30;;
8562;SDS011;16392;52.508;13.468;2022-12-20T06:08:03;384.77;;;71.47;;
8562;SDS011;16392;52.508;13.468;2022-12-20T06:10:30;384.57;;;70.53;;
8562;SDS011;16392;52.508;13.468;2022-12-20T06:12:58;388.23;;;73.60;;
8562;SDS011;16392;52.508;13.468;2022-12-20T06:15:25;385.30;;;70.77;;
8562;SDS011;16392;52.508;13.468;2022-12-20T06:17:52;385.83;;;73.97;;
8562;SDS011;16392;52.508;13.468;2022-12-20T06:20:18;389.63;;;77.20;;
8562;SDS011;16392;52.508;13.468;2022-12-20T06:22:46;387.63;;;73.90;;
8562;SDS011;16392;52.508;13.468;2022-12-20T06:25:13;386.23;;;72.73;;
8562;SDS011;16392;52.508;13.468;2022-12-20T06:27:40;387.07;;;76.47;;
8562;SDS011;16392;52.508;13.468;2022-12-20T06:30:07;385.13;;;71.77;;
8562;SDS011;16392;52.508;13.468;2022-12-20T06:32:35;385.57;;;69.67;;
8562;SDS011;16392;52.508;13.468;2022-12-20T06:35:02;384.70;;;69.67;;
8562;SDS011;16392;52.508;13.468;2022-12-20T06:37:30;384.20;;;70.53;;
8562;SDS011;16392;52.508;13.468;2022-12-20T06:39:58;385.73;;;70.13;;
8562;SDS011;16392;52.508;13.468;2022-12-20T06:42:25;383.93;;;68.73;;
8562;SDS011;16392;52.508;13.468;2022-12-20T06:44:51;386.00;;;73.03;;
8562;SDS011;16392;52.508;13.468;2022-12-20T06:47:18;385.73;;;72.60;;
8562;SDS011;16392;52.508;13.468;2022-12-20T06:49:44;388.67;;;75.50;;
8562;SDS011;16392;52.508;13.468;2022-12-20T06:52:11;384.63;;;71.13;;
8562;SDS011;16392;52.508;13.468;2022-12-20T06:54:38;383.57;;;70.97;;
8562;SDS011;16392;52.508;13.468;2022-12-20T06:57:06;384.17;;;70.37;;
8562;SDS011;16392;52.508;13.468;2022-12-20T06:59:33;385.73;;;72.87;;
8562;SDS011;16392;52.508;13.468;2022-12-20T07:02:00;382.03;;;70.10;;
8562;SDS011;16392;52.508;13.468;2022-12-20T07:04:27;386.37;;;76.77;;
8562;SDS011;16392;52.508;13.468;2022-12-20T07:06:53;383.47;;;69.67;;
8562;SDS011;16392;52.508;13.468;2022-12-20T07:09:21;383.83;;;73.43;;
8562;SDS011;16392;52.508;13.468;2022-12-20T07:11:48;385.67;;;71.93;;
8562;SDS011;16392;52.508;13.468;2022-12-20T07:14:17;386.23;;;75.93;;
8562;SDS011;16392;52.508;13.468;2022-12-20T07:16:44;384.37;;;72.03;;
8562;SDS011;16392;52.508;13.468;2022-12-20T07:19:10;393.17;;;78.00;;
8562;SDS011;16392;52.508;13.468;2022-12-20T07:21:38;383.10;;;69.97;;
8562;SDS011;16392;52.508;13.468;2022-12-20T07:24:05;384.93;;;72.07;;
8562;SDS011;16392;52.508;13.468;2022-12-20T07:26:33;385.33;;;70.90;;
8562;SDS011;16392;52.508;13.468;2022-12-20T07:29:00;384.57;;;69.03;;
8562;SDS011;16392;52.508;13.468;2022-12-20T07:31:28;383.20;;;70.60;;
8562;SDS011;16392;52.508;13.468;2022-12-20T07:33:55;383.57;;;71.57;;
8562;SDS011;16392;52.508;13.468;2022-12-20T07:36:21;385.37;;;71.67;;
8562;SDS011;16392;52.508;13.468;2022-12-20T07:38:48;385.50;;;73.67;;
8562;SDS011;16392;52.508;13.468;2022-12-20T07:41:15;383.70;;;69.03;;
8562;SDS011;16392;52.508;13.468;2022-12-20T07:43:43;386.00;;;71.03;;
8562;SDS011;16392;52.508;13.468;2022-12-20T07:46:09;391.20;;;89.60;;
8562;SDS011;16392;52.508;13.468;2022-12-20T07:48:40;386.27;;;69.40;;
8562;SDS011;16392;52.508;13.468;2022-12-20T07:51:07;386.37;;;72.30;;
8562;SDS011;16392;52.508;13.468;2022-12-20T07:53:37;387.53;;;76.93;;
8562;SDS011;16392;52.508;13.468;2022-12-20T07:56:07;388.27;;;78.33;;
8562;SDS011;16392;52.508;13.468;2022-12-20T07:58:36;383.87;;;69.20;;
8562;SDS011;16392;52.508;13.468;2022-12-20T08:01:05;387.70;;;71.87;;
8562;SDS011;16392;52.508;13.468;2022-12-20T08:03:34;384.43;;;70.37;;
8562;SDS011;16392;52.508;13.468;2022-12-20T08:06:06;389.07;;;70.83;;
8562;SDS011;16392;52.508;13.468;2022-12-20T08:08:35;387.47;;;74.97;;
8562;SDS011;16392;52.508;13.468;2022-12-20T08:11:05;386.33;;;72.07;;
8562;SDS011;16392;52.508;13.468;2022-12-20T08:13:36;384.23;;;70.10;;
8562;SDS011;16392;52.508;13.468;2022-12-20T08:16:04;387.67;;;77.13;;
8562;SDS011;16392;52.508;13.468;2022-12-20T08:18:31;387.13;;;71.87;;
8562;SDS011;16392;52.508;13.468;2022-12-20T08:20:58;387.00;;;77.20;;
8562;SDS011;16392;52.508;13.468;2022-12-20T08:23:26;384.90;;;72.37;;
8562;SDS011;16392;52.508;13.468;2022-12-20T08:25:53;384.57;;;68.03;;
8562;SDS011;16392;52.508;13.468;2022-12-20T08:28:20;385.37;;;72.30;;
8562;SDS011;16392;52.508;13.468;2022-12-20T08:30:48;387.27;;;74.47;;
8562;SDS011;16392;52.508;13.468;2022-12-20T08:33:14;385.83;;;71.20;;
8562;SDS011;16392;52.508;13.468;2022-12-20T08:35:41;384.57;;;69.63;;
8562;SDS011;16392;52.508;13.468;2022-12-20T08:38:08;390.40;;;82.17;;
8562;SDS011;16392;52.508;13.468;2022-12-20T08:40:37;383.10;;;67.23;;
8562;SDS011;16392;52.508;13.468;2022-12-20T08:43:05;382.53;;;69.47;;
8562;SDS011;16392;52.508;13.468;2022-12-20T08:45:32;384.30;;;69.80;;
8562;SDS011;16392;52.508;13.468;2022-12-20T08:47:59;382.93;;;66.43;;
8562;SDS011;16392;52.508;13.468;2022-12-20T08:50:27;386.13;;;70.03;;
8562;SDS011;16392;52.508;13.468;2022-12-20T08:52:54;382.53;;;67.80;;
8562;SDS011;16392;52.508;13.468;2022-12-20T08:55:22;387.47;;;71.93;;
8562;SDS011;16392;52.508;13.468;2022-12-20T08:57:51;381.77;;;67.47;;
8562;SDS011;16392;52.508;13.468;2022-12-20T09:00:22;384.00;;;69.03;;
8562;SDS011;16392;52.508;13.468;2022-12-20T09:02:49;383.37;;;67.53;;
8562;SDS011;16392;52.508;13.468;2022-12-20T09:05:18;386.83;;;72.03;;
8562;SDS011;16392;52.508;13.468;2022-12-20T09:07:46;386.07;;;67.50;;
8562;SDS011;16392;52.508;13.468;2022-12-20T09:10:14;385.50;;;71.07;;
8562;SDS011;16392;52.508;13.468;2022-12-20T09:12:41;391.37;;;74.87;;
8562;SDS011;16392;52.508;13.468;2022-12-20T09:15:10;386.77;;;71.77;;
8562;SDS011;16392;52.508;13.468;2022-12-20T09:17:37;388.90;;;72.10;;
8562;SDS011;16392;52.508;13.468;2022-12-20T09:20:05;386.23;;;72.47;;
8562;SDS011;16392;52.508;13.468;2022-12-20T09:22:35;386.73;;;69.53;;
8562;SDS011;16392;52.508;13.468;2022-12-20T09:25:03;384.97;;;69.03;;
8562;SDS011;16392;52.508;13.468;2022-12-20T09:27:31;388.50;;;69.63;;
8562;SDS011;16392;52.508;13.468;2022-12-20T09:29:59;389.87;;;71.23;;
8562;SDS011;16392;52.508;13.468;2022-12-20T09:32:28;394.07;;;75.40;;
8562;SDS011;16392;52.508;13.468;2022-12-20T09:34:55;391.33;;;71.87;;
8562;SDS011;16392;52.508;13.468;2022-12-20T09:37:22;394.27;;;72.33;;
8562;SDS011;16392;52.508;13.468;2022-12-20T09:39:53;394.33;;;72.47;;
8562;SDS011;16392;52.508;13.468;2022-12-20T09:42:21;394.57;;;72.87;;
8562;SDS011;16392;52.508;13.468;2022-12-20T09:44:51;395.37;;;75.33;;
8562;SDS011;16392;52.508;13.468;2022-12-20T09:47:21;394.77;;;75.17;;
8562;SDS011;16392;52.508;13.468;2022-12-20T09:49:52;398.40;;;77.23;;
8562;SDS011;16392;52.508;13.468;2022-12-20T09:52:28;398.83;;;74.97;;
8562;SDS011;16392;52.508;13.468;2022-12-20T09:55:06;403.33;;;75.37;;
8562;SDS011;16392;52.508;13.468;2022-12-20T09:57:45;403.13;;;76.43;;
8562;SDS011;16392;52.508;13.468;2022-12-20T10:00:20;406.40;;;79.33;;
8562;SDS011;16392;52.508;13.468;2022-12-20T10:02:47;406.10;;;77.63;;
8562;SDS011;16392;52.508;13.468;2022-12-20T10:05:16;414.40;;;74.80;;
8562;SDS011;16392;52.508;13.468;2022-12-20T10:07:49;404.90;;;74.10;;
8562;SDS011;16392;52.508;13.468;2022-12-20T10:10:25;410.40;;;86.77;;
8562;SDS011;16392;52.508;13.468;2022-12-20T10:13:14;407.38;;;76.28;;
8562;SDS011;16392;52.508;13.468;2022-12-20T10:15:53;405.93;;;74.20;;
8562;SDS011;16392;52.508;13.468;2022-12-20T10:18:28;408.93;;;78.23;;
8562;SDS011;16392;52.508;13.468;2022-12-20T10:21:09;410.70;;;79.87;;
8562;SDS011;16392;52.508;13.468;2022-12-20T10:23:44;405.13;;;73.87;;
8562;SDS011;16392;52.508;13.468;2022-12-20T10:26:21;407.10;;;78.87;;
8562;SDS011;16392;52.508;13.468;2022-12-20T10:28:48;409.93;;;79.33;;
8562;SDS011;16392;52.508;13.468;2022-12-20T10:31:15;405.30;;;73.33;;
8562;SDS011;16392;52.508;13.468;2022-12-20T10:33:44;405.47;;;74.73;;
8562;SDS011;16392;52.508;13.468;2022-12-20T10:36:22;408.53;;;78.53;;
8562;SDS011;16392;52.508;13.468;2022-12-20T10:38:51;405.73;;;73.13;;
8562;SDS011;16392;52.508;13.468;2022-12-20T10:41:22;408.30;;;79.07;;
8562;SDS011;16392;52.508;13.468;2022-12-20T10:43:53;410.37;;;82.20;;
8562;SDS011;16392;52.508;13.468;2022-12-20T10:46:33;408.20;;;81.70;;
8562;SDS011;16392;52.508;13.468;2022-12-20T10:49:20;410.77;;;82.17;;
8562;SDS011;16392;52.508;13.468;2022-12-20T10:51:53;407.23;;;79.67;;
8562;SDS011;16392;52.508;13.468;2022-12-20T10:54:22;408.10;;;80.73;;
8562;SDS011;16392;52.508;13.468;2022-12-20T10:56:53;409.40;;;75.90;;
8562;SDS011;16392;52.508;13.468;2022-12-20T10:59:25;415.37;;;87.10;;
8562;SDS011;16392;52.508;13.468;2022-12-20T11:01:57;415.80;;;83.37;;
8562;SDS011;16392;52.508;13.468;2022-12-20T11:04:24;414.93;;;83.90;;
8562;SDS011;16392;52.508;13.468;2022-12-20T11:06:55;419.37;;;83.97;;
8562;SDS011;16392;52.508;13.468;2022-12-20T11:09:24;418.07;;;86.87;;
8562;SDS011;16392;52.508;13.468;2022-12-20T11:11:57;418.13;;;87.17;;
8562;SDS011;16392;52.508;13.468;2022-12-20T11:14:25;421.07;;;84.47;;
8562;SDS011;16392;52.508;13.468;2022-12-20T11:16:53;415.73;;;82.47;;
8562;SDS011;16392;52.508;13.468;2022-12-20T11:19:29;415.13;;;84.03;;
8562;SDS011;16392;52.508;13.468;2022-12-20T11:22:07;416.77;;;83.13;;
8562;SDS011;16392;52.508;13.468;2022-12-20T11:24:44;413.97;;;82.00;;
8562;SDS011;16392;52.508;13.468;2022-12-20T11:27:21;413.43;;;79.93;;
8562;SDS011;16392;52.508;13.468;2022-12-20T11:30:02;410.83;;;79.03;;
8562;SDS011;16392;52.508;13.468;2022-12-20T11:32:43;410.40;;;80.77;;
8562;SDS011;16392;52.508;13.468;2022-12-20T11:35:18;408.73;;;76.97;;
8562;SDS011;16392;52.508;13.468;2022-12-20T11:37:51;409.43;;;74.83;;
8562;SDS011;16392;52.508;13.468;2022-12-20T11:40:28;407.40;;;74.70;;
8562;SDS011;16392;52.508;13.468;2022-12-20T11:43:00;408.73;;;77.90;;
8562;SDS011;16392;52.508;13.468;2022-12-20T11:45:42;409.03;;;77.90;;
8562;SDS011;16392;52.508;13.468;2022-12-20T11:48:25;408.90;;;78.50;;
8562;SDS011;16392;52.508;13.468;2022-12-20T11:51:02;419.27;;;83.77;;
8562;SDS011;16392;52.508;13.468;2022-12-20T11:53:33;408.23;;;75.53;;
8562;SDS011;16392;52.508;13.468;2022-12-20T11:56:05;409.33;;;76.70;;
8562;SDS011;16392;52.508;13.468;2022-12-20T11:58:40;408.73;;;76.60;;
8562;SDS011;16392;52.508;13.468;2022-12-20T12:01:15;413.27;;;78.13;;
8562;SDS011;16392;52.508;13.468;2022-12-20T12:03:56;413.30;;;79.77;;
8562;SDS011;16392;52.508;13.468;2022-12-20T12:06:30;409.40;;;77.53;;
8562;SDS011;16392;52.508;13.468;2022-12-20T12:09:05;415.07;;;83.10;;
8562;SDS011;16392;52.508;13.468;2022-12-20T12:11:38;412.50;;;79.60;;
8562;SDS011;16392;52.508;13.468;2022-12-20T12:14:08;411.33;;;78.20;;
8562;SDS011;16392;52.508;13.468;2022-12-20T12:16:43;410.93;;;82.43;;
8562;SDS011;16392;52.508;13.468;2022-12-20T12:19:15;409.50;;;75.87;;
8562;SDS011;16392;52.508;13.468;2022-12-20T12:21:43;409.73;;;77.73;;
8562;SDS011;16392;52.508;13.468;2022-12-20T12:24:17;409.87;;;78.67;;
8562;SDS011;16392;52.508;13.468;2022-12-20T12:26:48;413.37;;;83.97;;
8562;SDS011;16392;52.508;13.468;2022-12-20T12:29:16;410.83;;;76.77;;
8562;SDS011;16392;52.508;13.468;2022-12-20T12:31:44;409.83;;;76.70;;
8562;SDS011;16392;52.508;13.468;2022-12-20T12:34:16;411.33;;;76.87;;
8562;SDS011;16392;52.508;13.468;2022-12-20T12:37:11;411.47;;;81.07;;
8562;SDS011;16392;52.508;13.468;2022-12-20T12:40:03;418.60;;;91.77;;
8562;SDS011;16392;52.508;13.468;2022-12-20T12:45:54;412.60;;;78.80;;
8562;SDS011;16392;52.508;13.468;2022-12-20T12:48:24;410.13;;;79.17;;
8562;SDS011;16392;52.508;13.468;2022-12-20T12:50:54;410.97;;;80.10;;
8562;SDS011;16392;52.508;13.468;2022-12-20T12:53:24;411.63;;;81.70;;
8562;SDS011;16392;52.508;13.468;2022-12-20T12:55:58;410.83;;;78.23;;
8562;SDS011;16392;52.508;13.468;2022-12-20T12:59:12;411.70;;;80.07;;
8562;SDS011;16392;52.508;13.468;2022-12-20T13:04:52;408.50;;;75.37;;
8562;SDS011;16392;52.508;13.468;2022-12-20T13:07:25;416.90;;;90.17;;
8562;SDS011;16392;52.508;13.468;2022-12-20T13:13:17;410.10;;;78.77;;
8562;SDS011;16392;52.508;13.468;2022-12-20T13:15:51;410.73;;;76.93;;
8562;SDS011;16392;52.508;13.468;2022-12-20T13:18:30;412.17;;;82.57;;
8562;SDS011;16392;52.508;13.468;2022-12-20T13:27:02;410.50;;;78.50;;
8562;SDS011;16392;52.508;13.468;2022-12-20T13:29:51;407.87;;;77.67;;
8562;SDS011;16392;52.508;13.468;2022-12-20T13:35:27;407.37;;;76.17;;
8562;SDS011;16392;52.508;13.468;2022-12-20T13:37:56;409.13;;;77.90;;
8562;SDS011;16392;52.508;13.468;2022-12-20T13:40:29;407.90;;;76.90;;
8562;SDS011;16392;52.508;13.468;2022-12-20T13:43:01;409.80;;;80.77;;
8562;SDS011;16392;52.508;13.468;2022-12-20T13:45:33;413.20;;;79.80;;
8562;SDS011;16392;52.508;13.468;2022-12-20T13:48:01;407.60;;;77.33;;
8562;SDS011;16392;52.508;13.468;2022-12-20T13:50:31;408.93;;;78.60;;
8562;SDS011;16392;52.508;13.468;2022-12-20T13:53:02;409.73;;;77.17;;
8562;SDS011;16392;52.508;13.468;2022-12-20T13:55:35;414.23;;;82.30;;
8562;SDS011;16392;52.508;13.468;2022-12-20T13:58:08;410.47;;;81.00;;
8562;SDS011;16392;52.508;13.468;2022-12-20T14:00:39;408.00;;;74.97;;
8562;SDS011;16392;52.508;13.468;2022-12-20T14:03:18;408.60;;;76.70;;
8562;SDS011;16392;52.508;13.468;2022-12-20T14:05:47;407.10;;;76.97;;
8562;SDS011;16392;52.508;13.468;2022-12-20T14:08:15;407.33;;;78.00;;
8562;SDS011;16392;52.508;13.468;2022-12-20T14:10:45;412.60;;;84.70;;
8562;SDS011;16392;52.508;13.468;2022-12-20T14:13:16;409.33;;;76.90;;
8562;SDS011;16392;52.508;13.468;2022-12-20T14:15:47;411.63;;;82.53;;
8562;SDS011;16392;52.508;13.468;2022-12-20T14:18:16;408.03;;;74.50;;
8562;SDS011;16392;52.508;13.468;2022-12-20T14:20:45;407.23;;;73.77;;
8562;SDS011;16392;52.508;13.468;2022-12-20T14:23:15;409.50;;;82.37;;
8562;SDS011;16392;52.508;13.468;2022-12-20T14:25:44;407.23;;;74.43;;
8562;SDS011;16392;52.508;13.468;2022-12-20T14:28:18;405.73;;;72.37;;
8562;SDS011;16392;52.508;13.468;2022-12-20T14:30:55;406.87;;;75.47;;
8562;SDS011;16392;52.508;13.468;2022-12-20T14:33:28;411.37;;;81.53;;
8562;SDS011;16392;52.508;13.468;2022-12-20T14:36:06;412.80;;;79.37;;
8562;SDS011;16392;52.508;13.468;2022-12-20T14:38:34;406.10;;;74.13;;
8562;SDS011;16392;52.508;13.468;2022-12-20T14:41:01;412.07;;;73.40;;
8562;SDS011;16392;52.508;13.468;2022-12-20T14:43:31;413.33;;;84.00;;